Time;durP1;ratioP1;P1;durP2;ratioP2;P2;SDS_P1;SDS_P2;PMS_P1;PMS_P2;Temp;Humidity;BMP_temperature;BMP_pressure;BME280_temperature;BME280_humidity;BME280_pressure;Samples;Min_cycle;Max_cycle;Signal;HPM_P1;HPM_P2
2023/06/22 00:09:07;;;;;;;;;;;;;;;18.14;100.00;97724.00;18560569;32;20299;-59
2023/06/22 00:19:11;;;;;;;;;;;;;;;18.06;100.00;97728.31;18551315;32;19956;-59
2023/06/22 00:29:14;;;;;;;;;;;;;;;18.00;100.00;97737.81;18572411;31;19956;-58
2023/06/22 00:39:16;;;;;;;;;;;;;;;17.91;100.00;97718.59;18557688;32;20281;-59
2023/06/22 00:49:18;;;;;;;;;;;;;;;17.84;100.00;97727.28;18571567;32;19949;-59
2023/06/22 00:59:21;;;;;;;;;;;;;;;17.77;100.00;97718.72;18556931;32;19964;-58
2023/06/22 01:09:28;;;;;;;;;;;;;;;17.69;100.00;97725.78;18570680;32;20003;-59
2023/06/22 01:19:33;;;;;;;;;;;;;;;17.66;100.00;97717.38;18556056;32;19976;-59
2023/06/22 01:29:37;;;;;;;;;;;;;;;17.58;100.00;97721.69;18553751;31;19956;-59
2023/06/22 01:39:39;;;;;;;;;;;;;;;17.52;100.00;97712.81;18568701;32;20314;-59
2023/06/22 01:49:42;;;;;;;;;;;;;;;17.45;100.00;97709.72;18568190;32;20353;-59
2023/06/22 01:59:53;;;;;;;;;;;;;;;17.36;100.00;97709.69;18567577;32;19960;-59
2023/06/22 02:09:56;;;;;;;;;;;;;;;17.30;100.00;97682.81;18566990;32;20337;-58
2023/06/22 02:19:59;;;;;;;;;;;;;;;17.24;100.00;97691.13;18566267;31;19971;-59
2023/06/22 02:30:01;;;;;;;;;;;;;;;17.19;100.00;97671.34;18565289;32;20031;-58
2023/06/22 02:40:05;;;;;;;;;;;;;;;17.13;100.00;97653.47;18564914;32;19979;-58
2023/06/22 02:50:07;;;;;;;;;;;;;;;17.08;100.00;97662.59;18550287;32;19948;-58
2023/06/22 03:00:17;;;;;;;;;;;;;;;17.02;100.00;97653.75;18549543;32;19961;-58
2023/06/22 03:10:19;;;;;;;;;;;;;;;16.97;100.00;97653.87;18563873;32;20067;-58
2023/06/22 03:20:21;;;;;;;;;;;;;;;16.92;100.00;97652.06;18563003;32;20332;-59
2023/06/22 03:30:24;;;;;;;;;;;;;;;16.91;100.00;97638.72;18561909;32;20019;-59
2023/06/22 03:40:26;;;;;;;;;;;;;;;16.82;100.00;97646.03;18561862;32;19956;-58
2023/06/22 03:50:29;;;;;;;;;;;;;;;16.78;100.00;97641.16;18561241;32;20008;-59
2023/06/22 04:00:35;;;;;;;;;;;;;;;16.75;100.00;97646.47;18560905;32;19975;-58
2023/06/22 04:10:37;;;;;;;;;;;;;;;16.74;100.00;97650.31;18560585;31;20317;-59
2023/06/22 04:20:40;;;;;;;;;;;;;;;16.72;100.00;97658.81;18560659;32;19960;-59
2023/06/22 04:30:46;;;;;;;;;;;;;;;16.82;100.00;97652.28;18545783;32;20358;-59
2023/06/22 04:40:49;;;;;;;;;;;;;;;16.92;100.00;97654.81;18560478;32;19984;-59
2023/06/22 04:50:51;;;;;;;;;;;;;;;17.08;100.00;97654.41;18559375;32;20350;-59
2023/06/22 05:00:56;;;;;;;;;;;;;;;17.26;100.00;97647.09;18559125;32;19975;-58
2023/06/22 05:10:59;;;;;;;;;;;;;;;17.48;100.00;97645.44;18569195;32;19975;-59
2023/06/22 05:21:07;;;;;;;;;;;;;;;17.73;100.00;97644.72;18569956;32;19960;-59
2023/06/22 05:31:09;;;;;;;;;;;;;;;18.09;100.00;97643.69;18568913;32;19960;-59
2023/06/22 05:41:12;;;;;;;;;;;;;;;18.61;100.00;97645.63;18554305;32;19945;-59
2023/06/22 05:51:15;;;;;;;;;;;;;;;19.08;100.00;97633.97;18568090;32;19964;-59
2023/06/22 06:01:21;;;;;;;;;;;;;;;19.75;100.00;97601.41;18567400;32;19952;-59
2023/06/22 06:11:30;;;;;;;;;;;;;;;20.24;100.00;97608.34;18553505;32;19975;-59
2023/06/22 06:21:35;;;;;;;;;;;;;;;20.62;100.00;97681.56;18566047;32;20008;-59
2023/06/22 06:31:38;;;;;;;;;;;;;;;20.57;100.00;97732.03;18551166;32;19968;-59
2023/06/22 06:41:49;;;;;;;;;;;;;;;20.52;100.00;97770.66;18564962;32;19979;-58
2023/06/22 06:52:09;;;;;;;;;;;;;;;20.46;100.00;97744.56;18550496;32;20283;-58
2023/06/22 07:02:12;;;;;;;;;;;;;;;20.73;100.00;97802.88;18549887;32;19961;-59
2023/06/22 07:12:15;;;;;;;;;;;;;;;21.11;100.00;97736.75;18562861;32;19960;-58
2023/06/22 07:22:18;;;;;;;;;;;;;;;21.41;100.00;97763.34;18562496;32;19996;-58
2023/06/22 07:32:24;;;;;;;;;;;;;;;21.99;100.00;97724.81;18547939;32;19984;-59
2023/06/22 07:42:32;;;;;;;;;;;;;;;21.98;100.00;97767.25;18561563;32;19989;-59
2023/06/22 07:52:41;;;;;;;;;;;;;;;22.10;100.00;97752.69;18561222;32;19970;-59
2023/06/22 08:02:53;;;;;;;;;;;;;;;22.42;100.00;97723.44;18561078;32;19966;-59
2023/06/22 08:13:24;;;;;;;;;;;;;;;22.76;100.00;97679.94;18560430;32;19972;-58
2023/06/22 08:23:29;;;;;;;;;;;;;;;23.56;100.00;97622.16;18546236;32;20337;-59
2023/06/22 08:33:39;;;;;;;;;;;;;;;24.07;100.00;97617.81;18560153;32;19976;-58
2023/06/22 08:43:51;;;;;;;;;;;;;;;23.89;100.00;97607.19;18543188;32;20327;-58
2023/06/22 08:53:57;;;;;;;;;;;;;;;24.23;100.00;97596.47;18571889;32;19995;-58
2023/06/22 09:04:05;;;;;;;;;;;;;;;24.34;100.00;97605.78;18556627;32;19964;-59
2023/06/22 09:14:16;;;;;;;;;;;;;;;24.46;100.00;97592.97;18556797;32;20384;-59
2023/06/22 09:24:46;;;;;;;;;;;;;;;24.26;100.00;97575.63;18544459;32;20003;-58
2023/06/22 09:34:52;;;;;;;;;;;;;;;24.22;100.00;97599.59;18503412;32;19967;-58
2023/06/22 09:45:15;;;;;;;;;;;;;;;24.69;100.00;97593.06;18503593;32;19994;-58
2023/06/22 10:06:26;;;;;;;;;;;;;;;25.06;100.00;97592.56;18224563;32;19974;-59
2023/06/22 10:16:31;;;;;;;;;;;;;;;25.01;100.00;97577.06;18236546;32;19978;-59
2023/06/22 10:26:35;;;;;;;;;;;;;;;24.98;100.00;97599.94;18246972;32;20017;-58
2023/06/22 10:36:42;;;;;;;;;;;;;;;24.92;100.00;97595.88;18370284;32;20032;-59
2023/06/22 10:46:56;;;;;;;;;;;;;;;24.98;100.00;97637.84;18564938;32;19952;-59
2023/06/22 10:57:02;;;;;;;;;;;;;;;25.06;100.00;97638.78;18564678;32;20334;-59
2023/06/22 11:07:09;;;;;;;;;;;;;;;25.07;100.00;97670.81;18563457;32;19967;-59
2023/06/22 11:17:13;;;;;;;;;;;;;;;25.16;100.00;97696.28;18548960;32;19994;-59
2023/06/22 11:27:17;;;;;;;;;;;;;;;25.51;100.00;97698.13;18561981;32;20000;-59
2023/06/22 11:37:21;;;;;;;;;;;;;;;25.56;100.00;97678.47;18561841;32;19980;-59
2023/06/22 11:47:26;;;;;;;;;;;;;;;25.63;100.00;97677.78;18561787;32;20347;-59
2023/06/22 11:57:36;;;;;;;;;;;;;;;26.51;100.00;97671.19;18561378;32;19985;-59
2023/06/22 12:07:48;;;;;;;;;;;;;;;26.88;100.00;97725.16;18560956;32;19957;-59
2023/06/22 12:18:39;;;;;;;;;;;;;;;;;;;;;
2023/06/22 12:29:30;;;;;;;;;;;;;;;26.57;100.00;97716.00;18565020;31;19949;-59
2023/06/22 12:39:33;;;;;;;;;;;;;;;26.33;100.00;97720.06;18558360;32;19975;-59
2023/06/22 12:49:37;;;;;;;;;;;;;;;26.89;100.00;97735.09;18571847;32;20281;-59
2023/06/22 12:59:41;;;;;;;;;;;;;;;27.44;100.00;97742.09;18557469;32;19952;-59
2023/06/22 13:09:46;;;;;;;;;;;;;;;27.77;100.00;97755.09;18570805;31;20296;-59
2023/06/22 13:19:50;;;;;;;;;;;;;;;27.18;100.00;97729.87;18570234;31;19968;-59
2023/06/22 13:29:57;;;;;;;;;;;;;;;26.14;100.00;97779.16;18568260;32;20004;-59
2023/06/22 13:40:05;;;;;;;;;;;;;;;25.27;100.00;97715.84;18568814;32;19960;-59
2023/06/22 13:50:10;;;;;;;;;;;;;;;24.83;100.00;97739.09;18568668;32;19989;-59
2023/06/22 14:00:13;;;;;;;;;;;;;;;25.23;100.00;97679.00;18568308;32;20056;-59
2023/06/22 14:10:17;;;;;;;;;;;;;;;25.33;100.00;97668.16;18553153;32;20004;-59
2023/06/22 14:20:22;;;;;;;;;;;;;;;25.87;100.00;97640.56;18566731;32;19989;-59
2023/06/22 14:30:25;;;;;;;;;;;;;;;26.23;100.00;97674.38;18565452;32;19968;-59
2023/06/22 14:40:30;;;;;;;;;;;;;;;26.01;100.00;97665.72;18565034;32;19987;-59
2023/06/22 14:50:46;;;;;;;;;;;;;;;26.50;100.00;97638.28;18550400;32;19964;-59
2023/06/22 15:00:51;;;;;;;;;;;;;;;27.06;100.00;97631.03;18563891;31;19989;-59
2023/06/22 15:11:00;;;;;;;;;;;;;;;27.00;100.00;97619.47;18549994;32;19976;-59
2023/06/22 15:21:05;;;;;;;;;;;;;;;26.59;100.00;97633.25;18562800;32;19968;-60
2023/06/22 15:31:09;;;;;;;;;;;;;;;26.03;100.00;97598.88;18547792;32;19976;-59
2023/06/22 15:41:14;;;;;;;;;;;;;;;25.56;100.00;97616.72;18561835;32;19945;-59
2023/06/22 15:51:17;;;;;;;;;;;;;;;25.26;100.00;97607.13;18561112;32;19956;-59
2023/06/22 16:01:20;;;;;;;;;;;;;;;24.66;100.00;97519.94;18546987;32;19956;-59
2023/06/22 16:11:23;;;;;;;;;;;;;;;24.53;100.00;97535.09;18547276;32;19996;-59
2023/06/22 16:21:26;;;;;;;;;;;;;;;25.13;100.00;97539.31;18560434;32;19972;-59
2023/06/22 16:31:30;;;;;;;;;;;;;;;25.62;100.00;97524.69;18560009;32;19965;-59
2023/06/22 16:41:33;;;;;;;;;;;;;;;25.70;100.00;97609.44;18559845;32;19988;-59
2023/06/22 16:51:37;;;;;;;;;;;;;;;25.43;100.00;97603.09;18559354;32;20356;-59
2023/06/22 17:01:55;;;;;;;;;;;;;;;24.55;100.00;97610.13;18564624;32;19960;-59
2023/06/22 17:11:59;;;;;;;;;;;;;;;23.83;100.00;97659.09;18570796;32;20013;-59
2023/06/22 17:22:02;;;;;;;;;;;;;;;23.41;100.00;97700.22;18570111;32;19956;-56
2023/06/22 17:32:06;;;;;;;;;;;;;;;21.49;100.00;98026.56;18569399;32;20037;-54
2023/06/22 17:42:10;;;;;;;;;;;;;;;19.05;100.00;97861.25;18555009;31;19956;-56
2023/06/22 17:52:19;;;;;;;;;;;;;;;18.48;100.00;97895.75;18568305;32;19961;-56
2023/06/22 18:02:24;;;;;;;;;;;;;;;18.13;100.00;97884.66;18567899;32;19997;-57
2023/06/22 18:12:29;;;;;;;;;;;;;;;17.89;100.00;97893.19;18566574;32;19953;-57
2023/06/22 18:22:33;;;;;;;;;;;;;;;17.73;100.00;97887.28;18566424;32;19971;-57
2023/06/22 18:32:39;;;;;;;;;;;;;;;17.69;100.00;97887.13;18565765;32;19971;-57
2023/06/22 18:42:47;;;;;;;;;;;;;;;17.71;100.00;97897.72;18565310;32;19959;-57
2023/06/22 18:53:04;;;;;;;;;;;;;;;17.72;100.00;97864.59;18564976;32;20007;-58
2023/06/22 19:03:23;;;;;;;;;;;;;;;17.75;100.00;97896.00;18563984;32;19956;-58
2023/06/22 19:13:28;;;;;;;;;;;;;;;17.73;100.00;97903.69;18563406;32;20306;-58
2023/06/22 19:23:39;;;;;;;;;;;;;;;17.75;100.00;97924.12;18562038;32;20355;-58
2023/06/22 19:33:44;;;;;;;;;;;;;;;17.70;100.00;97934.41;18561875;31;20295;-58
2023/06/22 19:43:51;;;;;;;;;;;;;;;17.60;100.00;97944.44;18548122;32;19993;-58
2023/06/22 19:53:54;;;;;;;;;;;;;;;17.57;100.00;97949.75;18561371;32;19967;-58
2023/06/22 20:03:58;;;;;;;;;;;;;;;17.53;100.00;97948.75;18561054;32;19956;-58
2023/06/22 20:14:01;;;;;;;;;;;;;;;17.51;100.00;97956.44;18560890;32;20012;-58
2023/06/22 20:24:06;;;;;;;;;;;;;;;17.41;100.00;97973.87;18560483;31;19961;-58
2023/06/22 20:34:09;;;;;;;;;;;;;;;17.38;100.00;97985.44;18562668;32;19977;-58
2023/06/22 20:44:13;;;;;;;;;;;;;;;17.36;100.00;97976.72;18558693;32;19952;-58
2023/06/22 20:54:17;;;;;;;;;;;;;;;17.30;100.00;97997.09;18571708;32;20309;-58
2023/06/22 21:04:20;;;;;;;;;;;;;;;17.22;100.00;98004.06;18571184;32;20343;-58
2023/06/22 21:14:23;;;;;;;;;;;;;;;17.21;100.00;98013.38;18570594;32;19992;-58
2023/06/22 21:24:26;;;;;;;;;;;;;;;17.22;100.00;98021.28;18569876;32;19988;-58
2023/06/22 21:34:29;;;;;;;;;;;;;;;17.22;100.00;98032.19;18569850;32;19961;-58
2023/06/22 21:44:32;;;;;;;;;;;;;;;17.21;100.00;98037.97;18553877;32;19983;-58
2023/06/22 21:54:35;;;;;;;;;;;;;;;17.23;100.00;98038.50;18554688;32;20371;-58
2023/06/22 22:04:38;;;;;;;;;;;;;;;17.21;100.00;98055.19;18567733;32;19990;-58
2023/06/22 22:14:40;;;;;;;;;;;;;;;17.22;100.00;98067.72;18566699;31;19956;-58
2023/06/22 22:24:44;;;;;;;;;;;;;;;17.22;100.00;98077.88;18566448;32;20265;-58
2023/06/22 22:34:47;;;;;;;;;;;;;;;17.19;100.00;98068.34;18565545;32;19953;-58
2023/06/22 22:44:49;;;;;;;;;;;;;;;17.13;100.00;98088.69;18565217;32;19992;-57
2023/06/22 22:54:51;;;;;;;;;;;;;;;17.14;100.00;98105.91;18550188;32;19993;-58
2023/06/22 23:04:57;;;;;;;;;;;;;;;17.16;100.00;98093.56;18550023;32;19961;-58
2023/06/22 23:15:00;;;;;;;;;;;;;;;17.17;100.00;98075.22;18563443;32;19952;-58
2023/06/22 23:25:03;;;;;;;;;;;;;;;17.17;100.00;98072.50;18562787;31;19997;-58
2023/06/22 23:35:09;;;;;;;;;;;;;;;17.11;100.00;98101.84;18548587;32;19968;-57
2023/06/22 23:45:17;;;;;;;;;;;;;;;17.14;100.00;98128.56;18562065;32;19956;-57
2023/06/22 23:55:23;;;;;;;;;;;;;;;17.11;100.00;98140.09;18561306;32;20333;-58
